Time;durP1;ratioP1;P1;durP2;ratioP2;P2;SDS_P1;SDS_P2;PMS_P1;PMS_P2;Temp;Humidity;BMP_temperature;BMP_pressure;BME280_temperature;BME280_humidity;BME280_pressure;Samples;Min_cycle;Max_cycle;Signal;HPM_P1;HPM_P2
2022/10/30 00:01:59;;;;;;;21.6;27;;;;;;;12.1;85.6;99310;;;;
2022/10/30 00:11:59;;;;;;;23;30.7;;;;;;;11.8;86;99300;;;;
2022/10/30 00:22:59;;;;;;;23;30.7;;;;;;;11.6;86.2;99310;;;;
2022/10/30 00:32:59;;;;;;;23;30.7;;;;;;;11.5;86.6;99320;;;;
2022/10/30 00:42:59;;;;;;;22.4;26.8;;;;;;;11.3;86.7;99320;;;;
2022/10/30 00:53:59;;;;;;;22.4;26.8;;;;;;;11.3;87.3;99340;;;;
2022/10/30 01:04:59;;;;;;;20.1;24.7;;;;;;;11.3;88;99310;;;;
2022/10/30 01:14:59;;;;;;;20.1;24.7;;;;;;;11.4;89.4;99290;;;;
2022/10/30 01:25:59;;;;;;;20.1;24.7;;;;;;;11.7;90.2;99310;;;;
2022/10/30 01:35:59;;;;;;;22.3;26.9;;;;;;;11.9;90.2;99300;;;;
2022/10/30 01:45:59;;;;;;;22.3;26.9;;;;;;;11.9;90.3;99280;;;;
2022/10/30 01:56:59;;;;;;;22.3;26.9;;;;;;;12;89.9;99280;;;;
2022/10/30 02:06:59;;;;;;;19.6;22.2;;;;;;;12;89.5;99280;;;;
2022/10/30 02:17:59;;;;;;;19.6;22.2;;;;;;;11.9;89;99280;;;;
2022/10/30 02:27:59;;;;;;;19.6;22.2;;;;;;;11.7;88.6;99270;;;;
2022/10/30 02:38:59;;;;;;;18.4;24.3;;;;;;;11.6;88.4;99290;;;;
2022/10/30 02:48:59;;;;;;;18.4;24.3;;;;;;;11.4;88.5;99300;;;;
2022/10/30 02:59:59;;;;;;;18.4;24.3;;;;;;;11.2;88.3;99300;;;;
2022/10/30 03:10:59;;;;;;;18.2;21.2;;;;;;;11;88.1;99310;;;;
2022/10/30 03:20:59;;;;;;;18.2;21.2;;;;;;;10.9;88.2;99280;;;;
2022/10/30 03:31:59;;;;;;;18.2;21.2;;;;;;;10.9;89.6;99290;;;;
2022/10/30 03:41:59;;;;;;;19.8;23.2;;;;;;;10.9;89.9;99280;;;;
2022/10/30 03:51:59;;;;;;;19.8;23.2;;;;;;;10.8;90.4;99270;;;;
2022/10/30 04:02:59;;;;;;;19.8;23.2;;;;;;;10.8;90.5;99270;;;;
2022/10/30 04:12:59;;;;;;;18.6;23;;;;;;;10.9;90.5;99270;;;;
2022/10/30 04:22:59;;;;;;;18.6;23;;;;;;;10.9;90.5;99270;;;;
2022/10/30 04:33:59;;;;;;;17.9;22.9;;;;;;;10.8;90.4;99280;;;;
2022/10/30 04:45:01;;;;;;;17.9;22.9;;;;;;;10.8;90.3;99270;;;;
2022/10/30 04:54:59;;;;;;;17.9;22.9;;;;;;;10.7;90.2;99270;;;;
2022/10/30 05:04:59;;;;;;;17;20.7;;;;;;;10.7;90.2;99270;;;;
2022/10/30 05:15:59;;;;;;;17;20.7;;;;;;;10.6;90.4;99270;;;;
2022/10/30 05:25:59;;;;;;;17;20.7;;;;;;;10.5;90.4;99280;;;;
2022/10/30 05:37:00;;;;;;;16.8;21.4;;;;;;;10.5;90.3;99290;;;;
2022/10/30 05:46:59;;;;;;;16.8;21.4;;;;;;;10.5;90.3;99280;;;;
2022/10/30 05:57:59;;;;;;;16.8;21.4;;;;;;;10.5;90.8;99280;;;;
2022/10/30 06:07:59;;;;;;;16.5;21.5;;;;;;;10.6;91;99300;;;;
2022/10/30 06:17:59;;;;;;;16.5;21.5;;;;;;;10.7;91;99300;;;;
2022/10/30 06:27:59;;;;;;;16.5;21.5;;;;;;;10.7;90.8;99290;;;;
2022/10/30 06:38:59;;;;;;;18.5;22.9;;;;;;;10.9;90.6;99300;;;;
2022/10/30 06:48:59;;;;;;;18.5;22.9;;;;;;;11.1;90.6;99300;;;;
2022/10/30 06:58:59;;;;;;;18.5;22.9;;;;;;;11.4;90.5;99300;;;;
2022/10/30 07:09:59;;;;;;;16.7;20.2;;;;;;;11.6;90.2;99320;;;;
2022/10/30 07:19:59;;;;;;;16.7;20.2;;;;;;;11.9;89.5;99300;;;;
2022/10/30 07:29:59;;;;;;;16.7;20.2;;;;;;;12.2;88.8;99300;;;;
2022/10/30 07:40:59;;;;;;;16.8;21.4;;;;;;;12.4;88.1;99310;;;;
2022/10/30 07:50:59;;;;;;;16.8;21.4;;;;;;;12.7;87.8;99310;;;;
2022/10/30 08:01:02;;;;;;;16.8;21.4;;;;;;;13;86.6;99310;;;;
2022/10/30 08:10:59;;;;;;;15.8;18.4;;;;;;;13.4;86;99310;;;;
2022/10/30 08:20:59;;;;;;;15.8;18.4;;;;;;;13.8;84.8;99300;;;;
2022/10/30 08:30:59;;;;;;;15.8;18.4;;;;;;;14.1;83.9;99300;;;;
2022/10/30 08:41:59;;;;;;;15;18.7;;;;;;;14.7;82.8;99290;;;;
2022/10/30 08:52:59;;;;;;;15;18.7;;;;;;;15.1;81;99270;;;;
2022/10/30 09:03:59;;;;;;;16.5;21.6;;;;;;;15.7;79.8;99270;;;;
2022/10/30 09:13:59;;;;;;;16.5;21.6;;;;;;;16.1;78.5;99250;;;;
2022/10/30 09:24:59;;;;;;;16.5;21.6;;;;;;;16.6;77;99240;;;;
2022/10/30 09:34:59;;;;;;;13.5;18.6;;;;;;;17;76;99230;;;;
2022/10/30 09:44:59;;;;;;;13.5;18.6;;;;;;;17.4;75.3;99230;;;;
2022/10/30 09:55:59;;;;;;;13.5;18.6;;;;;;;17.9;74.2;99230;;;;
2022/10/30 10:05:59;;;;;;;12.3;20.5;;;;;;;18.2;72.7;99220;;;;
2022/10/30 10:15:59;;;;;;;12.3;20.5;;;;;;;18.3;72.5;99220;;;;
2022/10/30 10:25:59;;;;;;;12.3;20.5;;;;;;;18.6;71.7;99210;;;;
2022/10/30 10:36:59;;;;;;;12.2;21;;;;;;;18.9;70.8;99210;;;;
2022/10/30 10:46:59;;;;;;;12.2;21;;;;;;;19.3;69.8;99200;;;;
2022/10/30 10:57:00;;;;;;;12.2;21;;;;;;;19.7;68.7;99200;;;;
2022/10/30 11:07:59;;;;;;;10.4;13.9;;;;;;;20;67.5;99200;;;;
2022/10/30 11:17:59;;;;;;;10.4;13.9;;;;;;;20.5;67;99180;;;;
2022/10/30 11:28:59;;;;;;;10.4;13.9;;;;;;;21;64.6;99180;;;;
2022/10/30 11:38:59;;;;;;;10;20.6;;;;;;;21;64.1;99180;;;;
2022/10/30 11:49:59;;;;;;;10;20.6;;;;;;;20.9;64.2;99200;;;;
2022/10/30 12:00:59;;;;;;;10;20.6;;;;;;;20.8;64.7;99190;;;;
2022/10/30 12:10:59;;;;;;;8.7;13.6;;;;;;;20.9;64.8;99180;;;;
2022/10/30 12:20:59;;;;;;;8.7;13.6;;;;;;;21.4;65.2;99180;;;;
2022/10/30 12:31:59;;;;;;;8.7;13.6;;;;;;;21.5;61.7;99170;;;;
2022/10/30 12:42:59;;;;;;;8.5;14.6;;;;;;;21.3;62.5;99160;;;;
2022/10/30 12:52:59;;;;;;;8.5;14.6;;;;;;;21.2;63.8;99150;;;;
2022/10/30 13:02:59;;;;;;;8.5;14.6;;;;;;;21.3;64.2;99150;;;;
2022/10/30 13:13:00;;;;;;;7.7;13.2;;;;;;;21.3;64.8;99150;;;;
2022/10/30 13:22:59;;;;;;;7.7;13.2;;;;;;;21.7;63.8;99150;;;;
2022/10/30 13:32:59;;;;;;;7.7;13.2;;;;;;;22;62.8;99130;;;;
2022/10/30 13:43:59;;;;;;;7.3;11.5;;;;;;;22.3;62;99120;;;;
2022/10/30 13:54:59;;;;;;;7.3;11.5;;;;;;;22.4;60.8;99120;;;;
2022/10/30 14:05:59;;;;;;;6.5;9.7;;;;;;;22.4;60.7;99120;;;;
2022/10/30 14:16:59;;;;;;;6.5;9.7;;;;;;;22;61.3;99130;;;;
2022/10/30 14:27:59;;;;;;;6.5;9.7;;;;;;;21.5;62.3;99120;;;;
2022/10/30 14:38:59;;;;;;;6.1;10;;;;;;;21;64.3;99120;;;;
2022/10/30 14:48:59;;;;;;;6.1;10;;;;;;;20.4;65.2;99120;;;;
2022/10/30 15:00:00;;;;;;;6.1;10;;;;;;;19.9;66.5;99110;;;;
2022/10/30 15:09:59;;;;;;;6.9;11.7;;;;;;;19.3;67.7;99110;;;;
2022/10/30 15:20:59;;;;;;;6.9;11.7;;;;;;;18.8;69;99120;;;;
2022/10/30 15:30:59;;;;;;;6.9;11.7;;;;;;;18.4;69.9;99110;;;;
2022/10/30 15:41:59;;;;;;;6.9;13.5;;;;;;;18;70.9;99110;;;;
2022/10/30 15:51:59;;;;;;;6.9;13.5;;;;;;;17.7;72.2;99120;;;;
2022/10/30 16:01:59;;;;;;;6.9;13.5;;;;;;;17.5;73.6;99120;;;;
2022/10/30 16:12:59;;;;;;;7.4;13.2;;;;;;;17;74.1;99120;;;;
2022/10/30 16:23:59;;;;;;;7.4;13.2;;;;;;;16.5;75.3;99120;;;;
2022/10/30 16:33:59;;;;;;;8.6;12.7;;;;;;;16.1;76;99120;;;;
2022/10/30 16:43:59;;;;;;;8.6;12.7;;;;;;;15.9;76.7;99120;;;;
2022/10/30 16:54:59;;;;;;;8.6;12.7;;;;;;;15.5;77.5;99120;;;;
2022/10/30 17:05:59;;;;;;;12.9;20.4;;;;;;;15.4;78.6;99120;;;;
2022/10/30 17:16:59;;;;;;;12.9;20.4;;;;;;;15.3;79.5;99130;;;;
2022/10/30 17:27:59;;;;;;;12.9;20.4;;;;;;;15.1;80.1;99130;;;;
2022/10/30 17:38:59;;;;;;;12.1;19.7;;;;;;;15.1;80.8;99140;;;;
2022/10/30 17:50:01;;;;;;;12.1;19.7;;;;;;;15;80.8;99140;;;;
2022/10/30 17:59:59;;;;;;;12.1;19.7;;;;;;;14.9;80.9;99140;;;;
2022/10/30 18:09:59;;;;;;;12.6;20.4;;;;;;;14.7;81.2;99140;;;;
2022/10/30 18:19:59;;;;;;;12.6;20.4;;;;;;;14.7;82.9;99140;;;;
2022/10/30 18:31:00;;;;;;;12.6;20.4;;;;;;;14.5;82.5;99130;;;;
2022/10/30 18:41:59;;;;;;;13.9;19.5;;;;;;;14.4;82.9;99120;;;;
2022/10/30 18:52:59;;;;;;;13.9;19.5;;;;;;;14.4;83.3;99120;;;;
2022/10/30 19:04:01;;;;;;;13.4;21.7;;;;;;;14.3;83.7;99130;;;;
2022/10/30 19:14:59;;;;;;;13.4;21.7;;;;;;;14;82.7;99130;;;;
2022/10/30 19:25:01;;;;;;;13.4;21.7;;;;;;;13.5;82.4;99140;;;;
2022/10/30 19:34:59;;;;;;;10.4;13.8;;;;;;;13.3;84.9;99140;;;;
2022/10/30 19:46:00;;;;;;;10.4;13.8;;;;;;;13;84.9;99140;;;;
2022/10/30 19:55:59;;;;;;;10.4;13.8;;;;;;;12.8;85;99150;;;;
2022/10/30 20:06:59;;;;;;;15.5;20.4;;;;;;;12.4;84.9;99140;;;;
2022/10/30 20:16:59;;;;;;;15.5;20.4;;;;;;;12.3;86.3;99150;;;;
2022/10/30 20:26:59;;;;;;;15.5;20.4;;;;;;;12.2;86.4;99150;;;;
2022/10/30 20:37:59;;;;;;;14.9;20.8;;;;;;;12.1;86.9;99150;;;;
2022/10/30 20:47:59;;;;;;;14.9;20.8;;;;;;;12.1;87.7;99160;;;;
2022/10/30 20:58:59;;;;;;;14.9;20.8;;;;;;;12.1;87.6;99160;;;;
2022/10/30 21:09:59;;;;;;;14.5;22.6;;;;;;;11.9;87.1;99160;;;;
2022/10/30 21:21:00;;;;;;;14.5;22.6;;;;;;;11.6;86.7;99150;;;;
2022/10/30 21:30:59;;;;;;;14.5;22.6;;;;;;;11.4;87;99150;;;;
2022/10/30 21:41:59;;;;;;;14.8;19;;;;;;;11.2;87;99160;;;;
2022/10/30 21:51:59;;;;;;;14.8;19;;;;;;;11.1;87.4;99160;;;;
2022/10/30 22:01:59;;;;;;;14.8;19;;;;;;;11.1;88.2;99160;;;;
2022/10/30 22:12:59;;;;;;;13.9;18.8;;;;;;;11.2;88.8;99160;;;;
2022/10/30 22:23:59;;;;;;;13.9;18.8;;;;;;;11.4;89.7;99160;;;;
2022/10/30 22:33:59;;;;;;;27.9;35.9;;;;;;;11.5;90.1;99160;;;;
2022/10/30 22:44:59;;;;;;;27.9;35.9;;;;;;;11.5;90.2;99160;;;;
2022/10/30 22:55:59;;;;;;;27.9;35.9;;;;;;;11.6;90.7;99160;;;;
2022/10/30 23:06:59;;;;;;;32.6;39.5;;;;;;;11.7;90.8;99160;;;;
2022/10/30 23:16:59;;;;;;;32.6;39.5;;;;;;;11.8;91.1;99160;;;;
2022/10/30 23:26:59;;;;;;;32.6;39.5;;;;;;;11.8;90.8;99160;;;;
2022/10/30 23:37:59;;;;;;;23.3;30;;;;;;;11.6;90.5;99160;;;;
2022/10/30 23:47:59;;;;;;;23.3;30;;;;;;;11.5;90.1;99160;;;;
2022/10/30 23:58:59;;;;;;;23.3;30;;;;;;;11.6;90.5;99160;;;;
